Terminal Aerodrome Forecast
Issued by NWS Hastings, NE

Home | Current Version | Previous Version | Text Only | Print | Product List | Glossary On
Versions: 1 2 3 4 5 6 7 8 9 10 11 12 13 14 15 16
000
FTUS43 KGID 312320
TAFGRI
TAF
KGRI 312320Z 0100/0124 12008KT P6SM SCT200
     FM010600 15013KT P6SM FEW200
     FM011400 16020G28KT P6SM FEW200=

USA.gov is the U.S. government's official web portal to all federal, state and local government web resources and services.